sensor_id;sensor_type;location;lat;lon;timestamp;temperature;humidity
27781;DHT22;15167;1.318;103.762;2022-12-08T00:00:13;26.00;99.90
27781;DHT22;15167;1.318;103.762;2022-12-08T00:02:39;26.00;99.90
27781;DHT22;15167;1.318;103.762;2022-12-08T00:05:09;26.00;99.90
27781;DHT22;15167;1.318;103.762;2022-12-08T00:07:53;26.00;99.90
27781;DHT22;15167;1.318;103.762;2022-12-08T00:10:37;26.00;99.90
27781;DHT22;15167;1.318;103.762;2022-12-08T00:13:03;26.00;99.90
27781;DHT22;15167;1.318;103.762;2022-12-08T00:15:29;26.10;99.90
27781;DHT22;15167;1.318;103.762;2022-12-08T00:17:55;26.10;99.90
27781;DHT22;15167;1.318;103.762;2022-12-08T00:20:21;26.10;99.90
27781;DHT22;15167;1.318;103.762;2022-12-08T00:22:47;26.10;99.90
27781;DHT22;15167;1.318;103.762;2022-12-08T00:25:13;26.10;99.90
27781;DHT22;15167;1.318;103.762;2022-12-08T00:27:39;26.10;99.90
27781;DHT22;15167;1.318;103.762;2022-12-08T00:30:06;26.10;99.90
27781;DHT22;15167;1.318;103.762;2022-12-08T00:32:32;26.20;99.90
27781;DHT22;15167;1.318;103.762;2022-12-08T00:34:58;26.10;99.90
27781;DHT22;15167;1.318;103.762;2022-12-08T00:37:24;26.10;99.90
27781;DHT22;15167;1.318;103.762;2022-12-08T00:39:50;26.10;99.90
27781;DHT22;15167;1.318;103.762;2022-12-08T00:42:16;26.10;99.90
27781;DHT22;15167;1.318;103.762;2022-12-08T00:44:43;26.10;99.90
27781;DHT22;15167;1.318;103.762;2022-12-08T00:47:10;26.10;99.90
27781;DHT22;15167;1.318;103.762;2022-12-08T00:49:36;26.10;99.90
27781;DHT22;15167;1.318;103.762;2022-12-08T00:52:02;26.10;99.90
27781;DHT22;15167;1.318;103.762;2022-12-08T00:54:28;26.10;99.90
27781;DHT22;15167;1.318;103.762;2022-12-08T00:56:54;26.10;99.90
27781;DHT22;15167;1.318;103.762;2022-12-08T00:59:20;26.10;99.90
27781;DHT22;15167;1.318;103.762;2022-12-08T01:01:47;26.10;99.90
27781;DHT22;15167;1.318;103.762;2022-12-08T01:04:14;26.20;99.90
27781;DHT22;15167;1.318;103.762;2022-12-08T01:06:41;26.20;99.90
27781;DHT22;15167;1.318;103.762;2022-12-08T01:09:07;26.30;99.90
27781;DHT22;15167;1.318;103.762;2022-12-08T01:11:34;26.30;99.90
27781;DHT22;15167;1.318;103.762;2022-12-08T01:14:01;26.30;99.90
27781;DHT22;15167;1.318;103.762;2022-12-08T01:16:28;26.30;99.90
27781;DHT22;15167;1.318;103.762;2022-12-08T01:18:55;26.40;99.90
27781;DHT22;15167;1.318;103.762;2022-12-08T01:21:21;26.50;99.90
27781;DHT22;15167;1.318;103.762;2022-12-08T01:23:47;26.50;99.90
27781;DHT22;15167;1.318;103.762;2022-12-08T01:26:14;26.50;99.90
27781;DHT22;15167;1.318;103.762;2022-12-08T01:28:40;26.60;99.90
27781;DHT22;15167;1.318;103.762;2022-12-08T01:31:11;26.60;99.90
27781;DHT22;15167;1.318;103.762;2022-12-08T01:33:37;26.70;99.90
27781;DHT22;15167;1.318;103.762;2022-12-08T01:36:04;26.70;99.90
27781;DHT22;15167;1.318;103.762;2022-12-08T01:38:31;26.70;99.90
27781;DHT22;15167;1.318;103.762;2022-12-08T01:40:57;26.80;99.90
27781;DHT22;15167;1.318;103.762;2022-12-08T01:43:23;26.90;99.90
27781;DHT22;15167;1.318;103.762;2022-12-08T01:45:49;27.00;99.90
27781;DHT22;15167;1.318;103.762;2022-12-08T01:50:43;27.20;99.90
27781;DHT22;15167;1.318;103.762;2022-12-08T01:53:14;27.20;99.90
27781;DHT22;15167;1.318;103.762;2022-12-08T01:55:58;27.40;99.90
27781;DHT22;15167;1.318;103.762;2022-12-08T01:58:27;27.40;99.90
27781;DHT22;15167;1.318;103.762;2022-12-08T02:00:57;27.40;99.90
27781;DHT22;15167;1.318;103.762;2022-12-08T02:03:24;27.40;99.90
27781;DHT22;15167;1.318;103.762;2022-12-08T02:05:51;27.50;99.90
27781;DHT22;15167;1.318;103.762;2022-12-08T02:08:18;27.50;99.90
27781;DHT22;15167;1.318;103.762;2022-12-08T02:10:45;27.60;99.90
27781;DHT22;15167;1.318;103.762;2022-12-08T02:13:15;27.60;99.90
27781;DHT22;15167;1.318;103.762;2022-12-08T02:18:18;27.70;99.90
27781;DHT22;15167;1.318;103.762;2022-12-08T02:23:53;27.90;99.90
27781;DHT22;15167;1.318;103.762;2022-12-08T02:34:14;28.20;99.90
27781;DHT22;15167;1.318;103.762;2022-12-08T02:47:17;28.10;99.90
27781;DHT22;15167;1.318;103.762;2022-12-08T02:49:44;28.10;99.90
27781;DHT22;15167;1.318;103.762;2022-12-08T02:54:37;28.10;99.90
27781;DHT22;15167;1.318;103.762;2022-12-08T02:59:33;28.20;99.90
27781;DHT22;15167;1.318;103.762;2022-12-08T03:04:40;28.30;99.90
27781;DHT22;15167;1.318;103.762;2022-12-08T03:12:33;28.40;99.90
27781;DHT22;15167;1.318;103.762;2022-12-08T03:15:05;28.40;99.90
27781;DHT22;15167;1.318;103.762;2022-12-08T03:17:33;28.40;99.90
27781;DHT22;15167;1.318;103.762;2022-12-08T03:20:02;28.30;99.90
27781;DHT22;15167;1.318;103.762;2022-12-08T03:22:29;28.30;99.90
27781;DHT22;15167;1.318;103.762;2022-12-08T03:24:55;28.30;99.90
27781;DHT22;15167;1.318;103.762;2022-12-08T03:27:28;28.30;99.90
27781;DHT22;15167;1.318;103.762;2022-12-08T03:29:56;28.30;99.90
27781;DHT22;15167;1.318;103.762;2022-12-08T03:34:49;28.40;99.90
27781;DHT22;15167;1.318;103.762;2022-12-08T03:37:16;28.40;99.90
27781;DHT22;15167;1.318;103.762;2022-12-08T03:39:42;28.40;99.90
27781;DHT22;15167;1.318;103.762;2022-12-08T03:42:08;28.50;99.90
27781;DHT22;15167;1.318;103.762;2022-12-08T03:44:34;28.60;99.90
27781;DHT22;15167;1.318;103.762;2022-12-08T03:47:00;28.60;99.90
27781;DHT22;15167;1.318;103.762;2022-12-08T03:49:26;28.60;99.90
27781;DHT22;15167;1.318;103.762;2022-12-08T03:51:52;28.60;99.90
27781;DHT22;15167;1.318;103.762;2022-12-08T03:54:18;28.50;99.90
27781;DHT22;15167;1.318;103.762;2022-12-08T03:56:45;28.40;99.90
27781;DHT22;15167;1.318;103.762;2022-12-08T03:59:11;28.50;99.90
27781;DHT22;15167;1.318;103.762;2022-12-08T04:01:37;28.50;99.90
27781;DHT22;15167;1.318;103.762;2022-12-08T04:04:03;28.60;99.90
27781;DHT22;15167;1.318;103.762;2022-12-08T04:06:30;28.60;99.90
27781;DHT22;15167;1.318;103.762;2022-12-08T04:08:56;28.60;99.90
27781;DHT22;15167;1.318;103.762;2022-12-08T04:11:22;28.70;99.90
27781;DHT22;15167;1.318;103.762;2022-12-08T04:13:48;28.60;99.90
27781;DHT22;15167;1.318;103.762;2022-12-08T04:16:15;28.70;99.90
27781;DHT22;15167;1.318;103.762;2022-12-08T04:18:42;28.80;99.90
27781;DHT22;15167;1.318;103.762;2022-12-08T04:21:08;28.90;99.90
27781;DHT22;15167;1.318;103.762;2022-12-08T04:23:34;28.80;99.90
27781;DHT22;15167;1.318;103.762;2022-12-08T04:26:00;28.90;99.90
27781;DHT22;15167;1.318;103.762;2022-12-08T04:28:26;28.90;99.90
27781;DHT22;15167;1.318;103.762;2022-12-08T04:30:56;28.90;99.90
27781;DHT22;15167;1.318;103.762;2022-12-08T04:33:22;28.90;99.90
27781;DHT22;15167;1.318;103.762;2022-12-08T04:35:48;29.00;99.90
27781;DHT22;15167;1.318;103.762;2022-12-08T04:38:15;29.00;99.90
27781;DHT22;15167;1.318;103.762;2022-12-08T04:40:41;28.90;99.90
27781;DHT22;15167;1.318;103.762;2022-12-08T04:43:07;29.00;99.90
27781;DHT22;15167;1.318;103.762;2022-12-08T04:45:33;29.00;99.90
27781;DHT22;15167;1.318;103.762;2022-12-08T04:47:59;29.00;99.90
27781;DHT22;15167;1.318;103.762;2022-12-08T04:50:26;29.00;99.90
27781;DHT22;15167;1.318;103.762;2022-12-08T04:52:52;29.00;99.90
27781;DHT22;15167;1.318;103.762;2022-12-08T04:55:19;29.00;99.90
27781;DHT22;15167;1.318;103.762;2022-12-08T04:57:45;29.00;99.90
27781;DHT22;15167;1.318;103.762;2022-12-08T05:00:11;28.90;99.90
27781;DHT22;15167;1.318;103.762;2022-12-08T05:02:38;29.00;99.90
27781;DHT22;15167;1.318;103.762;2022-12-08T05:05:04;28.90;99.90
27781;DHT22;15167;1.318;103.762;2022-12-08T05:07:31;28.90;99.90
27781;DHT22;15167;1.318;103.762;2022-12-08T05:09:57;28.90;99.90
27781;DHT22;15167;1.318;103.762;2022-12-08T05:12:23;28.80;99.90
27781;DHT22;15167;1.318;103.762;2022-12-08T05:14:49;28.90;99.90
27781;DHT22;15167;1.318;103.762;2022-12-08T05:17:16;28.90;99.90
27781;DHT22;15167;1.318;103.762;2022-12-08T05:19:42;28.80;99.90
27781;DHT22;15167;1.318;103.762;2022-12-08T05:22:08;28.90;99.90
27781;DHT22;15167;1.318;103.762;2022-12-08T05:24:35;28.90;99.90
27781;DHT22;15167;1.318;103.762;2022-12-08T05:27:01;28.90;99.90
27781;DHT22;15167;1.318;103.762;2022-12-08T05:29:28;29.00;99.90
27781;DHT22;15167;1.318;103.762;2022-12-08T05:31:54;29.00;99.90
27781;DHT22;15167;1.318;103.762;2022-12-08T05:34:20;29.00;99.90
27781;DHT22;15167;1.318;103.762;2022-12-08T05:36:46;29.00;99.90
27781;DHT22;15167;1.318;103.762;2022-12-08T05:39:13;29.10;99.90
27781;DHT22;15167;1.318;103.762;2022-12-08T05:41:39;29.20;99.90
27781;DHT22;15167;1.318;103.762;2022-12-08T05:44:05;29.30;99.90
27781;DHT22;15167;1.318;103.762;2022-12-08T05:46:32;29.20;99.90
27781;DHT22;15167;1.318;103.762;2022-12-08T05:48:58;29.00;99.90
27781;DHT22;15167;1.318;103.762;2022-12-08T05:51:25;28.90;99.90
27781;DHT22;15167;1.318;103.762;2022-12-08T05:53:51;28.90;99.90
27781;DHT22;15167;1.318;103.762;2022-12-08T05:56:18;29.00;99.90
27781;DHT22;15167;1.318;103.762;2022-12-08T05:58:44;29.00;99.90
27781;DHT22;15167;1.318;103.762;2022-12-08T06:01:17;28.90;99.90
27781;DHT22;15167;1.318;103.762;2022-12-08T06:03:44;29.00;99.90
27781;DHT22;15167;1.318;103.762;2022-12-08T06:06:10;29.10;99.90
27781;DHT22;15167;1.318;103.762;2022-12-08T06:08:36;29.20;99.90
27781;DHT22;15167;1.318;103.762;2022-12-08T06:11:02;29.20;99.90
27781;DHT22;15167;1.318;103.762;2022-12-08T06:13:28;29.20;99.90
27781;DHT22;15167;1.318;103.762;2022-12-08T06:15:54;29.10;99.90
27781;DHT22;15167;1.318;103.762;2022-12-08T06:18:20;28.90;99.90
27781;DHT22;15167;1.318;103.762;2022-12-08T06:20:46;28.90;99.90
27781;DHT22;15167;1.318;103.762;2022-12-08T06:23:12;28.80;99.90
27781;DHT22;15167;1.318;103.762;2022-12-08T06:25:39;28.70;99.90
27781;DHT22;15167;1.318;103.762;2022-12-08T06:28:05;28.70;99.90
27781;DHT22;15167;1.318;103.762;2022-12-08T06:30:31;28.70;99.90
27781;DHT22;15167;1.318;103.762;2022-12-08T06:32:57;28.70;99.90
27781;DHT22;15167;1.318;103.762;2022-12-08T06:35:24;28.60;99.90
27781;DHT22;15167;1.318;103.762;2022-12-08T06:37:50;28.60;99.90
27781;DHT22;15167;1.318;103.762;2022-12-08T06:40:16;28.50;99.90
27781;DHT22;15167;1.318;103.762;2022-12-08T06:42:43;28.40;99.90
27781;DHT22;15167;1.318;103.762;2022-12-08T06:45:10;28.30;99.90
27781;DHT22;15167;1.318;103.762;2022-12-08T06:47:36;28.20;99.90
27781;DHT22;15167;1.318;103.762;2022-12-08T06:50:03;28.10;99.90
27781;DHT22;15167;1.318;103.762;2022-12-08T06:52:29;28.10;99.90
27781;DHT22;15167;1.318;103.762;2022-12-08T06:54:55;28.10;99.90
27781;DHT22;15167;1.318;103.762;2022-12-08T06:57:21;28.10;99.90
27781;DHT22;15167;1.318;103.762;2022-12-08T06:59:48;28.10;99.90
27781;DHT22;15167;1.318;103.762;2022-12-08T07:02:15;28.10;99.90
27781;DHT22;15167;1.318;103.762;2022-12-08T07:04:41;28.10;99.90
27781;DHT22;15167;1.318;103.762;2022-12-08T07:07:07;28.10;99.90
27781;DHT22;15167;1.318;103.762;2022-12-08T07:09:34;28.20;99.90
27781;DHT22;15167;1.318;103.762;2022-12-08T07:12:01;28.10;99.90
27781;DHT22;15167;1.318;103.762;2022-12-08T07:14:28;28.10;99.90
27781;DHT22;15167;1.318;103.762;2022-12-08T07:16:54;28.00;99.90
27781;DHT22;15167;1.318;103.762;2022-12-08T07:19:20;28.00;99.90
27781;DHT22;15167;1.318;103.762;2022-12-08T07:21:46;28.00;99.90
27781;DHT22;15167;1.318;103.762;2022-12-08T07:24:12;28.00;99.90
27781;DHT22;15167;1.318;103.762;2022-12-08T07:26:39;27.90;99.90
27781;DHT22;15167;1.318;103.762;2022-12-08T07:29:05;27.90;99.90
27781;DHT22;15167;1.318;103.762;2022-12-08T07:31:31;27.90;99.90
27781;DHT22;15167;1.318;103.762;2022-12-08T07:33:57;28.00;99.90
27781;DHT22;15167;1.318;103.762;2022-12-08T07:36:24;28.00;99.90
27781;DHT22;15167;1.318;103.762;2022-12-08T07:38:50;28.00;99.90
27781;DHT22;15167;1.318;103.762;2022-12-08T07:41:19;28.10;99.90
27781;DHT22;15167;1.318;103.762;2022-12-08T07:43:45;28.10;99.90
27781;DHT22;15167;1.318;103.762;2022-12-08T07:46:15;28.00;99.90
27781;DHT22;15167;1.318;103.762;2022-12-08T07:48:41;28.00;99.90
27781;DHT22;15167;1.318;103.762;2022-12-08T07:51:08;27.90;99.90
27781;DHT22;15167;1.318;103.762;2022-12-08T07:53:35;27.90;99.90
27781;DHT22;15167;1.318;103.762;2022-12-08T07:56:04;27.90;99.90
27781;DHT22;15167;1.318;103.762;2022-12-08T07:58:31;27.80;99.90
27781;DHT22;15167;1.318;103.762;2022-12-08T08:00:57;27.70;99.90
27781;DHT22;15167;1.318;103.762;2022-12-08T08:03:23;27.70;99.90
27781;DHT22;15167;1.318;103.762;2022-12-08T08:05:49;27.60;99.90
27781;DHT22;15167;1.318;103.762;2022-12-08T08:08:15;27.30;99.90
27781;DHT22;15167;1.318;103.762;2022-12-08T08:10:42;26.60;99.90
27781;DHT22;15167;1.318;103.762;2022-12-08T08:13:08;26.10;99.90
27781;DHT22;15167;1.318;103.762;2022-12-08T08:15:34;25.90;99.90
27781;DHT22;15167;1.318;103.762;2022-12-08T08:18:00;25.20;99.90
27781;DHT22;15167;1.318;103.762;2022-12-08T08:20:26;24.90;99.90
27781;DHT22;15167;1.318;103.762;2022-12-08T08:22:53;24.70;99.90
27781;DHT22;15167;1.318;103.762;2022-12-08T08:25:19;24.40;99.90
27781;DHT22;15167;1.318;103.762;2022-12-08T08:27:47;24.20;99.90
27781;DHT22;15167;1.318;103.762;2022-12-08T08:30:13;24.00;99.90
27781;DHT22;15167;1.318;103.762;2022-12-08T08:32:40;23.90;99.90
27781;DHT22;15167;1.318;103.762;2022-12-08T08:35:06;23.80;99.90
27781;DHT22;15167;1.318;103.762;2022-12-08T08:37:32;23.60;99.90
27781;DHT22;15167;1.318;103.762;2022-12-08T08:39:58;23.40;99.90
27781;DHT22;15167;1.318;103.762;2022-12-08T08:42:24;23.30;99.90
27781;DHT22;15167;1.318;103.762;2022-12-08T08:44:50;23.40;99.90
27781;DHT22;15167;1.318;103.762;2022-12-08T08:47:17;23.40;99.90
27781;DHT22;15167;1.318;103.762;2022-12-08T08:49:43;23.60;99.90
27781;DHT22;15167;1.318;103.762;2022-12-08T08:52:09;23.70;99.90
27781;DHT22;15167;1.318;103.762;2022-12-08T08:54:35;23.70;99.90
27781;DHT22;15167;1.318;103.762;2022-12-08T08:57:01;23.70;99.90
27781;DHT22;15167;1.318;103.762;2022-12-08T08:59:28;23.50;99.90
27781;DHT22;15167;1.318;103.762;2022-12-08T09:01:54;23.50;99.90
27781;DHT22;15167;1.318;103.762;2022-12-08T09:04:20;23.40;99.90
27781;DHT22;15167;1.318;103.762;2022-12-08T09:06:47;23.40;99.90
27781;DHT22;15167;1.318;103.762;2022-12-08T09:09:14;23.40;99.90
27781;DHT22;15167;1.318;103.762;2022-12-08T09:11:41;23.30;99.90
27781;DHT22;15167;1.318;103.762;2022-12-08T09:14:09;23.30;99.90
27781;DHT22;15167;1.318;103.762;2022-12-08T09:16:35;23.30;99.90
27781;DHT22;15167;1.318;103.762;2022-12-08T09:19:02;23.40;99.90
27781;DHT22;15167;1.318;103.762;2022-12-08T09:21:28;23.40;99.90
27781;DHT22;15167;1.318;103.762;2022-12-08T09:23:55;23.50;99.90
27781;DHT22;15167;1.318;103.762;2022-12-08T09:26:21;23.70;99.90
27781;DHT22;15167;1.318;103.762;2022-12-08T09:28:48;23.80;99.90
27781;DHT22;15167;1.318;103.762;2022-12-08T09:31:18;23.80;99.90
27781;DHT22;15167;1.318;103.762;2022-12-08T09:33:45;23.90;99.90
27781;DHT22;15167;1.318;103.762;2022-12-08T09:36:12;23.90;99.90
27781;DHT22;15167;1.318;103.762;2022-12-08T09:38:38;24.00;99.90
27781;DHT22;15167;1.318;103.762;2022-12-08T09:41:11;24.00;99.90
27781;DHT22;15167;1.318;103.762;2022-12-08T09:46:09;24.10;99.90
27781;DHT22;15167;1.318;103.762;2022-12-08T09:48:43;24.10;99.90
27781;DHT22;15167;1.318;103.762;2022-12-08T09:51:12;24.10;99.90
27781;DHT22;15167;1.318;103.762;2022-12-08T09:56:12;24.10;99.90
27781;DHT22;15167;1.318;103.762;2022-12-08T09:58:52;24.30;99.90
27781;DHT22;15167;1.318;103.762;2022-12-08T10:01:20;24.30;99.90
27781;DHT22;15167;1.318;103.762;2022-12-08T10:03:47;24.40;99.90
27781;DHT22;15167;1.318;103.762;2022-12-08T10:14:15;24.80;99.90
27781;DHT22;15167;1.318;103.762;2022-12-08T10:16:46;24.90;99.90
27781;DHT22;15167;1.318;103.762;2022-12-08T10:19:22;24.90;99.90
27781;DHT22;15167;1.318;103.762;2022-12-08T10:21:50;25.00;99.90
27781;DHT22;15167;1.318;103.762;2022-12-08T10:24:25;25.20;99.90
27781;DHT22;15167;1.318;103.762;2022-12-08T10:26:51;25.20;99.90
27781;DHT22;15167;1.318;103.762;2022-12-08T10:29:18;25.40;99.90
27781;DHT22;15167;1.318;103.762;2022-12-08T10:31:44;25.50;99.90
27781;DHT22;15167;1.318;103.762;2022-12-08T10:34:18;25.50;99.90
27781;DHT22;15167;1.318;103.762;2022-12-08T10:36:48;25.60;99.90
27781;DHT22;15167;1.318;103.762;2022-12-08T10:41:54;25.70;99.90
27781;DHT22;15167;1.318;103.762;2022-12-08T10:44:24;25.60;99.90
27781;DHT22;15167;1.318;103.762;2022-12-08T10:46:51;25.50;99.90
27781;DHT22;15167;1.318;103.762;2022-12-08T10:49:23;25.50;99.90
27781;DHT22;15167;1.318;103.762;2022-12-08T10:51:51;25.40;99.90
27781;DHT22;15167;1.318;103.762;2022-12-08T10:54:27;25.40;99.90
27781;DHT22;15167;1.318;103.762;2022-12-08T10:56:54;25.30;99.90
27781;DHT22;15167;1.318;103.762;2022-12-08T10:59:21;25.20;99.90
27781;DHT22;15167;1.318;103.762;2022-12-08T11:01:51;25.20;99.90
27781;DHT22;15167;1.318;103.762;2022-12-08T11:04:21;25.00;99.90
27781;DHT22;15167;1.318;103.762;2022-12-08T11:06:48;25.00;99.90
27781;DHT22;15167;1.318;103.762;2022-12-08T11:11:44;24.80;99.90
27781;DHT22;15167;1.318;103.762;2022-12-08T11:14:15;24.70;99.90
27781;DHT22;15167;1.318;103.762;2022-12-08T11:16:43;24.60;99.90
27781;DHT22;15167;1.318;103.762;2022-12-08T11:19:13;24.60;99.90
27781;DHT22;15167;1.318;103.762;2022-12-08T11:21:40;24.60;99.90
27781;DHT22;15167;1.318;103.762;2022-12-08T11:24:28;24.60;99.90
27781;DHT22;15167;1.318;103.762;2022-12-08T11:26:57;24.60;99.90
27781;DHT22;15167;1.318;103.762;2022-12-08T11:29:24;24.60;99.90
27781;DHT22;15167;1.318;103.762;2022-12-08T11:32:33;24.50;99.90
27781;DHT22;15167;1.318;103.762;2022-12-08T11:37:09;24.40;99.90
27781;DHT22;15167;1.318;103.762;2022-12-08T11:39:41;24.50;99.90
27781;DHT22;15167;1.318;103.762;2022-12-08T11:42:09;24.50;99.90
27781;DHT22;15167;1.318;103.762;2022-12-08T11:44:44;24.40;99.90
27781;DHT22;15167;1.318;103.762;2022-12-08T11:47:17;24.40;99.90
27781;DHT22;15167;1.318;103.762;2022-12-08T11:49:45;24.40;99.90
27781;DHT22;15167;1.318;103.762;2022-12-08T11:54:51;24.40;99.90
27781;DHT22;15167;1.318;103.762;2022-12-08T11:57:20;24.40;99.90
27781;DHT22;15167;1.318;103.762;2022-12-08T11:59:48;24.40;99.90
27781;DHT22;15167;1.318;103.762;2022-12-08T12:02:19;24.40;99.90
27781;DHT22;15167;1.318;103.762;2022-12-08T12:04:54;24.40;99.90
27781;DHT22;15167;1.318;103.762;2022-12-08T12:07:31;24.50;99.90
27781;DHT22;15167;1.318;103.762;2022-12-08T12:12:42;24.50;99.90
27781;DHT22;15167;1.318;103.762;2022-12-08T12:18:06;24.50;99.90
27781;DHT22;15167;1.318;103.762;2022-12-08T12:20:35;24.60;99.90
27781;DHT22;15167;1.318;103.762;2022-12-08T12:23:22;24.50;99.90
27781;DHT22;15167;1.318;103.762;2022-12-08T12:25:59;24.60;99.90
27781;DHT22;15167;1.318;103.762;2022-12-08T12:28:27;24.60;99.90
27781;DHT22;15167;1.318;103.762;2022-12-08T12:30:59;24.60;99.90
27781;DHT22;15167;1.318;103.762;2022-12-08T12:33:26;24.60;99.90
27781;DHT22;15167;1.318;103.762;2022-12-08T12:35:55;24.60;99.90
27781;DHT22;15167;1.318;103.762;2022-12-08T12:38:26;24.60;99.90
27781;DHT22;15167;1.318;103.762;2022-12-08T12:41:13;24.60;99.90
27781;DHT22;15167;1.318;103.762;2022-12-08T12:43:41;24.60;99.90
27781;DHT22;15167;1.318;103.762;2022-12-08T12:48:52;24.70;99.90
27781;DHT22;15167;1.318;103.762;2022-12-08T12:54:20;24.60;99.90
27781;DHT22;15167;1.318;103.762;2022-12-08T12:56:48;24.60;99.90
27781;DHT22;15167;1.318;103.762;2022-12-08T13:01:59;24.60;99.90
27781;DHT22;15167;1.318;103.762;2022-12-08T13:04:32;24.50;99.90
27781;DHT22;15167;1.318;103.762;2022-12-08T13:06:59;24.50;99.90
27781;DHT22;15167;1.318;103.762;2022-12-08T13:09:28;24.40;99.90
27781;DHT22;15167;1.318;103.762;2022-12-08T13:11:56;24.40;99.90
27781;DHT22;15167;1.318;103.762;2022-12-08T13:14:30;24.40;99.90
27781;DHT22;15167;1.318;103.762;2022-12-08T13:16:57;24.40;99.90
27781;DHT22;15167;1.318;103.762;2022-12-08T13:19:23;24.40;99.90
27781;DHT22;15167;1.318;103.762;2022-12-08T13:21:50;24.40;99.90
27781;DHT22;15167;1.318;103.762;2022-12-08T13:24:26;24.40;99.90
27781;DHT22;15167;1.318;103.762;2022-12-08T13:29:29;24.50;99.90
27781;DHT22;15167;1.318;103.762;2022-12-08T13:31:59;24.50;99.90
27781;DHT22;15167;1.318;103.762;2022-12-08T13:42:06;24.40;99.90
27781;DHT22;15167;1.318;103.762;2022-12-08T13:47:10;24.40;99.90
27781;DHT22;15167;1.318;103.762;2022-12-08T13:49:42;24.40;99.90
27781;DHT22;15167;1.318;103.762;2022-12-08T13:52:18;24.30;99.90
27781;DHT22;15167;1.318;103.762;2022-12-08T13:54:46;24.30;99.90
27781;DHT22;15167;1.318;103.762;2022-12-08T13:57:23;24.30;99.90
27781;DHT22;15167;1.318;103.762;2022-12-08T13:59:50;24.30;99.90
27781;DHT22;15167;1.318;103.762;2022-12-08T14:02:19;24.30;99.90
27781;DHT22;15167;1.318;103.762;2022-12-08T14:04:50;24.20;99.90
27781;DHT22;15167;1.318;103.762;2022-12-08T14:07:16;24.20;99.90
27781;DHT22;15167;1.318;103.762;2022-12-08T14:09:42;24.20;99.90
27781;DHT22;15167;1.318;103.762;2022-12-08T14:12:25;24.20;99.90
27781;DHT22;15167;1.318;103.762;2022-12-08T14:15:02;24.20;99.90
27781;DHT22;15167;1.318;103.762;2022-12-08T14:17:28;24.20;99.90
27781;DHT22;15167;1.318;103.762;2022-12-08T14:19:58;24.20;99.90
27781;DHT22;15167;1.318;103.762;2022-12-08T14:22:31;24.20;99.90
27781;DHT22;15167;1.318;103.762;2022-12-08T14:24:57;24.30;99.90
27781;DHT22;15167;1.318;103.762;2022-12-08T14:27:24;24.30;99.90
27781;DHT22;15167;1.318;103.762;2022-12-08T14:29:51;24.20;99.90
27781;DHT22;15167;1.318;103.762;2022-12-08T14:34:55;24.30;99.90
27781;DHT22;15167;1.318;103.762;2022-12-08T14:37:21;24.30;99.90
27781;DHT22;15167;1.318;103.762;2022-12-08T14:39:48;24.20;99.90
27781;DHT22;15167;1.318;103.762;2022-12-08T14:42:22;24.20;99.90
27781;DHT22;15167;1.318;103.762;2022-12-08T14:44:54;24.20;99.90
27781;DHT22;15167;1.318;103.762;2022-12-08T14:47:20;24.20;99.90
27781;DHT22;15167;1.318;103.762;2022-12-08T14:49:46;24.30;99.90
27781;DHT22;15167;1.318;103.762;2022-12-08T14:52:12;24.30;99.90
27781;DHT22;15167;1.318;103.762;2022-12-08T14:54:39;24.30;99.90
27781;DHT22;15167;1.318;103.762;2022-12-08T14:57:10;24.30;99.90
27781;DHT22;15167;1.318;103.762;2022-12-08T14:59:38;24.30;99.90
27781;DHT22;15167;1.318;103.762;2022-12-08T15:05:08;24.30;99.90
27781;DHT22;15167;1.318;103.762;2022-12-08T15:08:20;24.30;99.90
27781;DHT22;15167;1.318;103.762;2022-12-08T15:10:23;24.20;99.90
27781;DHT22;15167;1.318;103.762;2022-12-08T15:13:23;24.20;99.90
27781;DHT22;15167;1.318;103.762;2022-12-08T15:15:53;24.20;99.90
27781;DHT22;15167;1.318;103.762;2022-12-08T15:18:30;24.20;99.90
27781;DHT22;15167;1.318;103.762;2022-12-08T15:21:00;24.20;99.90
27781;DHT22;15167;1.318;103.762;2022-12-08T15:23:29;24.10;99.90
27781;DHT22;15167;1.318;103.762;2022-12-08T15:25:57;24.10;99.90
27781;DHT22;15167;1.318;103.762;2022-12-08T15:28:24;24.10;99.90
27781;DHT22;15167;1.318;103.762;2022-12-08T15:30:51;24.10;99.90
27781;DHT22;15167;1.318;103.762;2022-12-08T15:33:18;24.10;99.90
27781;DHT22;15167;1.318;103.762;2022-12-08T15:35:45;24.10;99.90
27781;DHT22;15167;1.318;103.762;2022-12-08T15:38:27;24.10;99.90
27781;DHT22;15167;1.318;103.762;2022-12-08T15:40:56;24.10;99.90
27781;DHT22;15167;1.318;103.762;2022-12-08T15:43:25;24.10;99.90
27781;DHT22;15167;1.318;103.762;2022-12-08T15:45:51;24.20;99.90
27781;DHT22;15167;1.318;103.762;2022-12-08T15:48:21;24.20;99.90
27781;DHT22;15167;1.318;103.762;2022-12-08T15:50:48;24.20;99.90
27781;DHT22;15167;1.318;103.762;2022-12-08T15:53:14;24.20;99.90
27781;DHT22;15167;1.318;103.762;2022-12-08T15:55:41;24.10;99.90
27781;DHT22;15167;1.318;103.762;2022-12-08T15:58:10;24.00;99.90
27781;DHT22;15167;1.318;103.762;2022-12-08T16:00:40;24.10;99.90
27781;DHT22;15167;1.318;103.762;2022-12-08T16:03:08;24.00;99.90
27781;DHT22;15167;1.318;103.762;2022-12-08T16:05:43;24.10;99.90
27781;DHT22;15167;1.318;103.762;2022-12-08T16:08:12;24.10;99.90
27781;DHT22;15167;1.318;103.762;2022-12-08T16:10:39;24.10;99.90
27781;DHT22;15167;1.318;103.762;2022-12-08T16:13:12;24.20;99.90
27781;DHT22;15167;1.318;103.762;2022-12-08T16:15:56;24.20;99.90
27781;DHT22;15167;1.318;103.762;2022-12-08T16:18:24;24.30;99.90
27781;DHT22;15167;1.318;103.762;2022-12-08T16:20:51;24.30;99.90
27781;DHT22;15167;1.318;103.762;2022-12-08T16:23:17;24.30;99.90
27781;DHT22;15167;1.318;103.762;2022-12-08T16:25:43;24.30;99.90
27781;DHT22;15167;1.318;103.762;2022-12-08T16:28:11;24.30;99.90
27781;DHT22;15167;1.318;103.762;2022-12-08T16:30:37;24.30;99.90
27781;DHT22;15167;1.318;103.762;2022-12-08T16:33:03;24.30;99.90
27781;DHT22;15167;1.318;103.762;2022-12-08T16:35:30;24.30;99.90
27781;DHT22;15167;1.318;103.762;2022-12-08T16:37:56;24.30;99.90
27781;DHT22;15167;1.318;103.762;2022-12-08T16:40:22;24.30;99.90
27781;DHT22;15167;1.318;103.762;2022-12-08T16:42:48;24.40;99.90
27781;DHT22;15167;1.318;103.762;2022-12-08T16:45:16;24.30;99.90
27781;DHT22;15167;1.318;103.762;2022-12-08T16:47:52;24.30;99.90
27781;DHT22;15167;1.318;103.762;2022-12-08T16:50:23;24.20;99.90
27781;DHT22;15167;1.318;103.762;2022-12-08T16:52:50;24.10;99.90
27781;DHT22;15167;1.318;103.762;2022-12-08T16:55:20;24.10;99.90
27781;DHT22;15167;1.318;103.762;2022-12-08T16:57:46;24.10;99.90